KPWTPAUN

Guest
Details From KPWT - Bremerton National
To PAUN - Unalakleet
Flight Number -
Tags Generated
Created
Modified
Stats Distance 1,582 nm / 2,930 km
Max Altitude 0 ft / 0 m
Waypoints 6
Social Downloads 0
Likes 0
Share VATSIM

Download

Looking for another format? Having issues loading an existing format? Contact us
Advertisement - Login to hide

Notes

Generated

Route

KPWT ATUNA JOH SITWE YAGUN PAUN

ID Type Via Altitude Latitude Longitude Leg Dist Tot Dist Heading (true) Name
O KPWT APT - 0 ft / 0 m 47.48333˚ -122.77138˚ - 0 nm - -
ATUNA FIX - 0 ft / 0 m 50.37319˚ -126.53106˚ 228 nm 228 nm 321° / 318° -
JOH VOR - 0 ft / 0 m 60.48094˚ -146.59933˚ 907 nm 1136 nm 320° / 303° JOHNSTONE POINT VOR-DME
SITWE FIX - 0 ft / 0 m 62.25000˚ -153.00000˚ 212 nm 1348 nm 303° / 297° -
YAGUN FIX - 0 ft / 0 m 63.80489˚ -160.15525˚ 215 nm 1564 nm 299° / 292° -
O PAUN APT - 0 ft / 0 m 63.88345˚ -160.79903˚ 17 nm 1582 nm 286° / 285° -

Altitude Profile

Advertisement - Login to hide

Weather


0- 5 10 15 20 25 30 35+ Temperature / ° C

Clouds and Precipitation
Forecast for 2018-05-27 00:00 UTC. Updated 5 hours ago

Ground ~20,000 ft ~40,000 ft Winds

KPWT

Details ICAO KPWT (PWT)
Name Bremerton National
Region United States
Timezone America/Los_Angeles (UTC-7.0)
Stats Elevation 444 ft / 135 m (AMSL)
Location 47.490240° -122.764815°
Runways 1
Magnetic Variation 15.712° E

METAR

KPWT 270356Z AUTO 05005KT 10SM OVC050 14/08 A3020 RMK AO2 SLP246 T01440083

Decode

TAF

TAF KPWT 262320Z 2700/2724 04005KT P6SM SCT040 BKN050 OVC150 FM270400 11003KT P6SM SCT040 BKN120 FM271000 16003KT P6SM SCT018 BKN030 FM271700 18004KT P6SM SCT025 FM271900 19004KT P6SM SCT040

Decode

Departure Runways

ID Width Length Bearing (true) Bearing (mag) Surface Threshold Offset Overrun Length
01 151 ft / 46 m 5,997 ft / 1,828 m 32.69° 16.98° Asphalt 0 ft / 0 m 0 ft / 0 m
19 151 ft / 46 m 5,997 ft / 1,828 m 212.70° 196.99° Asphalt 0 ft / 0 m 1,243 ft / 379 m

PAUN

Details ICAO PAUN (UNK)
Name Unalakleet
Region USA (Alaska)
Timezone America/Anchorage (UTC-8.0)
Stats Elevation 68 ft / 21 m (AMSL)
Location 63.886590° -160.796931°
Runways 2
Magnetic Variation 12.021° E

METAR

PAUN 270356Z AUTO 28006KT 10SM CLR 06/01 A2979 RMK AO2 SLP092 T00610011

Decode

TAF

PAUN 262339Z 2700/2724 28008KT P6SM OVC017 FM271800 25010KT P6SM SCT015 BKN050

Decode

Destination Runways

ID Width Length Bearing (true) Bearing (mag) Surface Threshold Offset Overrun Length
15 151 ft / 46 m 5,990 ft / 1,826 m 164.15° 152.13° Asphalt 0 ft / 0 m 499 ft / 152 m
26 79 ft / 24 m 1,993 ft / 608 m 278.43° 266.41° Asphalt 0 ft / 0 m 0 ft / 0 m
33 151 ft / 46 m 5,990 ft / 1,826 m 344.16° 332.14° Asphalt 0 ft / 0 m 0 ft / 0 m
8 79 ft / 24 m 1,993 ft / 608 m 98.42° 86.40° Asphalt 0 ft / 0 m 0 ft / 0 m